Time;durP1;ratioP1;P1;durP2;ratioP2;P2;SDS_P1;SDS_P2;PMS_P1;PMS_P2;Temp;Humidity;BMP_temperature;BMP_pressure;BME280_temperature;BME280_humidity;BME280_pressure;Samples;Min_cycle;Max_cycle;Signal;HPM_P1;HPM_P2
2024/01/23 06:17:08;;;;;;;;;4.00;2.00;;;;;;;;5419608;22;12335;-71
2024/01/23 06:19:33;;;;;;;;;4.00;4.00;;;;;;;;4994435;28;11544;-68
2024/01/23 06:21:58;;;;;;;;;2.00;2.00;;;;;;;;4994893;28;9650;-69
2024/01/23 06:24:24;;;;;;;;;4.25;3.00;;;;;;;;4908111;28;11387;-71
2024/01/23 06:26:49;;;;;;;;;5.00;4.00;;;;;;;;4933557;28;9953;-71
2024/01/23 06:29:15;;;;;;;;;8.00;4.00;;;;;;;;4975844;28;8836;-71
2024/01/23 06:31:41;;;;;;;;;5.00;4.00;;;;;;;;4975320;28;8820;-72
2024/01/23 06:34:07;;;;;;;;;6.50;6.50;;;;;;;;4975480;28;8800;-73
2024/01/23 06:36:32;;;;;;;;;2.00;2.00;;;;;;;;4975024;28;11629;-68
2024/01/23 06:38:58;;;;;;;;;4.00;4.00;;;;;;;;4974033;28;9554;-68
2024/01/23 06:41:23;;;;;;;;;5.00;2.00;;;;;;;;4975260;28;9517;-71
2024/01/23 06:43:49;;;;;;;;;4.75;4.00;;;;;;;;4974951;28;11594;-70
2024/01/23 06:46:14;;;;;;;;;7.50;3.50;;;;;;;;4971711;28;8851;-71
2024/01/23 06:48:39;;;;;;;;;6.00;5.00;;;;;;;;4975048;28;8792;-74
2024/01/23 06:51:05;;;;;;;;;5.00;4.50;;;;;;;;4974781;28;8838;-71
2024/01/23 06:53:30;;;;;;;;;5.00;5.00;;;;;;;;4975006;28;8804;-70
2024/01/23 06:55:55;;;;;;;;;6.00;4.75;;;;;;;;4989765;28;8836;-71
2024/01/23 06:58:20;;;;;;;;;4.25;4.25;;;;;;;;4979084;28;8825;-77
2024/01/23 07:00:46;;;;;;;;;2.00;2.00;;;;;;;;4994123;28;8801;-69
2024/01/23 07:03:11;;;;;;;;;6.00;5.00;;;;;;;;4994167;28;8801;-71
2024/01/23 07:05:36;;;;;;;;;4.00;1.50;;;;;;;;4992698;28;8910;-70
2024/01/23 07:08:02;;;;;;;;;4.00;4.00;;;;;;;;4991877;28;8817;-71
2024/01/23 07:10:28;;;;;;;;;4.50;4.50;;;;;;;;4992189;28;8943;-71
2024/01/23 07:12:53;;;;;;;;;6.00;5.50;;;;;;;;4992188;28;11670;-70
2024/01/23 07:15:19;;;;;;;;;8.00;5.00;;;;;;;;4992175;28;8808;-71
2024/01/23 07:17:44;;;;;;;;;6.50;5.00;;;;;;;;4978951;28;8867;-71
2024/01/23 07:20:10;;;;;;;;;4.75;4.75;;;;;;;;4971207;28;8827;-71
2024/01/23 07:22:36;;;;;;;;;5.00;4.00;;;;;;;;4974106;28;8849;-71
2024/01/23 07:25:01;;;;;;;;;4.25;4.25;;;;;;;;4984344;28;11522;-71
2024/01/23 07:27:27;;;;;;;;;5.00;5.00;;;;;;;;4982880;28;8902;-71
2024/01/23 07:29:52;;;;;;;;;4.25;4.25;;;;;;;;4984068;28;8828;-72
2024/01/23 07:32:17;;;;;;;;;6.50;6.00;;;;;;;;4982752;28;8835;-71
2024/01/23 07:34:42;;;;;;;;;1.25;1.25;;;;;;;;4983111;28;8891;-71
2024/01/23 07:37:08;;;;;;;;;8.00;7.50;;;;;;;;4983986;28;8845;-73
2024/01/23 07:39:33;;;;;;;;;2.00;1.00;;;;;;;;4990354;28;9554;-69
2024/01/23 07:41:58;;;;;;;;;6.50;4.25;;;;;;;;4993442;28;8824;-70
2024/01/23 07:44:24;;;;;;;;;7.25;7.00;;;;;;;;4993202;28;8935;-70
2024/01/23 07:46:49;;;;;;;;;5.00;5.00;;;;;;;;4987136;28;8804;-70
2024/01/23 07:49:14;;;;;;;;;8.75;7.00;;;;;;;;4973992;28;8909;-70
2024/01/23 07:51:49;;;;;;;;;8.00;8.00;;;;;;;;4973659;28;8812;-70
2024/01/23 07:54:15;;;;;;;;;7.50;7.00;;;;;;;;4973692;28;8823;-70
2024/01/23 07:56:40;;;;;;;;;8.75;7.00;;;;;;;;4973515;28;11574;-70
2024/01/23 07:59:05;;;;;;;;;8.00;7.50;;;;;;;;4973417;28;9572;-70
2024/01/23 08:01:31;;;;;;;;;8.00;7.00;;;;;;;;4973458;28;8826;-75
2024/01/23 08:03:57;;;;;;;;;8.25;8.25;;;;;;;;4973620;28;8812;-71
2024/01/23 08:06:22;;;;;;;;;8.00;7.25;;;;;;;;4973545;28;8800;-69
2024/01/23 08:08:47;;;;;;;;;8.00;8.00;;;;;;;;4973279;28;12340;-69
2024/01/23 08:11:13;;;;;;;;;10.75;8.00;;;;;;;;4973333;28;9525;-70
2024/01/23 08:13:38;;;;;;;;;9.00;9.00;;;;;;;;4973255;28;8899;-71
2024/01/23 08:16:07;;;;;;;;;9.00;9.00;;;;;;;;4973149;28;8799;-70
2024/01/23 08:18:32;;;;;;;;;12.00;11.25;;;;;;;;4972892;28;8921;-70
2024/01/23 08:20:57;;;;;;;;;9.50;9.50;;;;;;;;4972053;28;11569;-70
2024/01/23 08:23:23;;;;;;;;;9.75;9.75;;;;;;;;4971617;28;8982;-69
2024/01/23 08:25:48;;;;;;;;;14.25;14.25;;;;;;;;4973007;28;8878;-71
2024/01/23 08:28:13;;;;;;;;;12.75;11.50;;;;;;;;4972924;28;8827;-69
2024/01/23 08:30:39;;;;;;;;;10.75;9.00;;;;;;;;4971059;28;8926;-73
2024/01/23 08:33:04;;;;;;;;;1.50;1.50;;;;;;;;4972884;28;8839;-75
2024/01/23 08:35:30;;;;;;;;;14.00;11.50;;;;;;;;4972960;28;8827;-73
2024/01/23 08:37:55;;;;;;;;;17.00;15.00;;;;;;;;4973022;28;8840;-69
2024/01/23 08:40:20;;;;;;;;;15.75;13.75;;;;;;;;4972704;28;8829;-68
2024/01/23 08:42:45;;;;;;;;;17.00;12.25;;;;;;;;4972602;28;9732;-69
2024/01/23 08:45:11;;;;;;;;;15.75;15.75;;;;;;;;4972678;28;8898;-69
2024/01/23 08:47:36;;;;;;;;;17.50;14.00;;;;;;;;4972215;28;8812;-68
2024/01/23 08:50:01;;;;;;;;;15.75;14.25;;;;;;;;4972396;28;8824;-68
2024/01/23 08:52:27;;;;;;;;;18.75;16.00;;;;;;;;4972475;28;8784;-68
2024/01/23 08:54:52;;;;;;;;;17.25;15.00;;;;;;;;4972401;28;8964;-68
2024/01/23 08:57:17;;;;;;;;;14.75;14.50;;;;;;;;4972346;28;8933;-70
2024/01/23 08:59:43;;;;;;;;;19.75;14.50;;;;;;;;4971954;28;8942;-70
2024/01/23 09:02:10;;;;;;;;;11.00;11.00;;;;;;;;4972133;28;8808;-68
2024/01/23 09:04:36;;;;;;;;;17.75;15.75;;;;;;;;4971237;28;8920;-68
2024/01/23 09:07:01;;;;;;;;;20.25;17.25;;;;;;;;4974846;28;11731;-68
2024/01/23 09:09:26;;;;;;;;;21.00;15.75;;;;;;;;4982075;28;8840;-68
2024/01/23 09:11:51;;;;;;;;;20.50;19.50;;;;;;;;4978570;28;8820;-68
2024/01/23 09:14:17;;;;;;;;;24.25;21.75;;;;;;;;4971804;28;9596;-68
2024/01/23 09:16:42;;;;;;;;;21.75;19.25;;;;;;;;4974063;28;8879;-68
2024/01/23 09:19:07;;;;;;;;;28.25;21.50;;;;;;;;4991492;28;9488;-75
2024/01/23 09:21:32;;;;;;;;;24.75;23.75;;;;;;;;4982908;28;8914;-77
2024/01/23 09:23:59;;;;;;;;;25.25;24.00;;;;;;;;4971490;28;8925;-75
2024/01/23 09:26:25;;;;;;;;;25.00;24.75;;;;;;;;4971818;28;8816;-75
2024/01/23 09:28:50;;;;;;;;;23.25;23.25;;;;;;;;4971739;28;11577;-75
2024/01/23 09:31:15;;;;;;;;;21.75;19.75;;;;;;;;4971884;28;8824;-76
2024/01/23 09:33:40;;;;;;;;;17.00;17.00;;;;;;;;4971675;28;8804;-76
2024/01/23 09:36:08;;;;;;;;;22.25;17.75;;;;;;;;4970368;28;8830;-76
2024/01/23 09:38:33;;;;;;;;;23.00;20.75;;;;;;;;4976892;28;8937;-76
2024/01/23 09:41:04;;;;;;;;;21.00;19.50;;;;;;;;4970383;28;11574;-76
2024/01/23 09:43:29;;;;;;;;;20.50;20.00;;;;;;;;4971500;28;8827;-76
2024/01/23 09:45:55;;;;;;;;;24.75;20.00;;;;;;;;4971626;28;11598;-76
2024/01/23 09:48:21;;;;;;;;;12.25;11.25;;;;;;;;4971423;28;8816;-76
2024/01/23 09:50:46;;;;;;;;;24.25;21.00;;;;;;;;4971675;28;8792;-76
2024/01/23 09:53:12;;;;;;;;;20.25;16.75;;;;;;;;4971593;28;8841;-78
2024/01/23 09:55:37;;;;;;;;;18.75;17.00;;;;;;;;4971490;28;8926;-74
2024/01/23 09:58:03;;;;;;;;;24.00;20.75;;;;;;;;4971331;28;8852;-73
2024/01/23 10:00:28;;;;;;;;;10.50;9.00;;;;;;;;4971704;28;8815;-73
2024/01/23 10:02:54;;;;;;;;;20.25;18.25;;;;;;;;4971306;28;8811;-73
2024/01/23 10:05:21;;;;;;;;;25.00;22.00;;;;;;;;4971641;28;8823;-73
2024/01/23 10:07:47;;;;;;;;;22.00;22.00;;;;;;;;4971684;28;11703;-73
2024/01/23 10:10:14;;;;;;;;;18.25;16.00;;;;;;;;4971396;28;11573;-74
2024/01/23 10:12:48;;;;;;;;;19.25;17.50;;;;;;;;4970014;28;9013;-72
2024/01/23 10:15:16;;;;;;;;;20.00;16.75;;;;;;;;4971308;28;11538;-78
2024/01/23 10:17:42;;;;;;;;;26.25;22.50;;;;;;;;4971155;28;11648;-72
2024/01/23 10:20:08;;;;;;;;;22.75;20.75;;;;;;;;4970041;28;11601;-72
2024/01/23 10:22:34;;;;;;;;;22.25;20.25;;;;;;;;4970940;28;11573;-72
2024/01/23 10:24:59;;;;;;;;;26.50;25.25;;;;;;;;4971245;28;8828;-72
2024/01/23 10:27:25;;;;;;;;;21.25;16.00;;;;;;;;4970668;28;8926;-72
2024/01/23 10:29:50;;;;;;;;;24.50;20.00;;;;;;;;4971229;28;8842;-72
2024/01/23 10:32:16;;;;;;;;;26.25;24.75;;;;;;;;4971132;28;8796;-72
2024/01/23 10:34:41;;;;;;;;;22.50;20.25;;;;;;;;4971281;28;8796;-72
2024/01/23 10:37:07;;;;;;;;;25.25;25.25;;;;;;;;4971037;28;9612;-72
2024/01/23 10:39:33;;;;;;;;;29.50;25.25;;;;;;;;4969942;28;8816;-72
2024/01/23 10:41:59;;;;;;;;;28.75;26.00;;;;;;;;4970826;28;8839;-72
2024/01/23 10:44:26;;;;;;;;;21.50;21.25;;;;;;;;4971191;28;8804;-72
2024/01/23 10:46:54;;;;;;;;;25.50;22.75;;;;;;;;4965946;28;8957;-72
2024/01/23 10:49:19;;;;;;;;;29.75;24.75;;;;;;;;4970582;28;11627;-72
2024/01/23 10:51:47;;;;;;;;;24.75;21.75;;;;;;;;4986022;28;12342;-72
2024/01/23 10:54:21;;;;;;;;;22.00;22.00;;;;;;;;4979436;28;8843;-72
2024/01/23 10:56:50;;;;;;;;;24.00;23.00;;;;;;;;4984693;28;11591;-72
2024/01/23 10:59:17;;;;;;;;;25.75;21.75;;;;;;;;4984740;28;12368;-72
2024/01/23 11:01:44;;;;;;;;;23.75;22.75;;;;;;;;4985400;28;11622;-72
2024/01/23 11:04:10;;;;;;;;;23.00;22.75;;;;;;;;4993735;28;12305;-72
2024/01/23 11:06:39;;;;;;;;;34.00;29.75;;;;;;;;4993684;28;11601;-72
2024/01/23 11:09:11;;;;;;;;;33.00;30.50;;;;;;;;4993869;28;8785;-72
2024/01/23 11:11:41;;;;;;;;;24.00;21.25;;;;;;;;4993618;28;11568;-72
2024/01/23 11:14:12;;;;;;;;;22.75;21.25;;;;;;;;4993659;28;11570;-71
2024/01/23 11:16:37;;;;;;;;;29.00;27.00;;;;;;;;4989067;28;11602;-72
2024/01/23 11:19:03;;;;;;;;;22.50;20.50;;;;;;;;4974029;28;11551;-73
2024/01/23 11:21:28;;;;;;;;;29.75;21.75;;;;;;;;4974046;28;9522;-71
2024/01/23 11:24:00;;;;;;;;;24.50;23.00;;;;;;;;4974136;28;8800;-76
2024/01/23 11:26:26;;;;;;;;;27.25;22.50;;;;;;;;4972708;28;8828;-76
2024/01/23 11:29:04;;;;;;;;;26.75;24.25;;;;;;;;4973415;28;11584;-74
2024/01/23 11:31:35;;;;;;;;;25.25;22.25;;;;;;;;4970495;28;8819;-75
2024/01/23 11:34:38;;;;;;;;;20.25;20.00;;;;;;;;4954480;28;11566;-72
2024/01/23 11:37:03;;;;;;;;;29.00;22.00;;;;;;;;4951970;28;11700;-73
2024/01/23 11:39:32;;;;;;;;;25.25;22.00;;;;;;;;4952085;28;11655;-73
2024/01/23 11:41:58;;;;;;;;;32.50;26.00;;;;;;;;4947752;28;8866;-72
2024/01/23 11:44:25;;;;;;;;;26.00;23.50;;;;;;;;4941003;28;11584;-72
2024/01/23 11:46:51;;;;;;;;;26.50;23.25;;;;;;;;4926591;28;8893;-72
2024/01/23 11:49:16;;;;;;;;;27.00;23.50;;;;;;;;4941796;28;12315;-71
2024/01/23 11:51:42;;;;;;;;;27.75;26.00;;;;;;;;4937124;28;9582;-71
2024/01/23 11:54:09;;;;;;;;;28.00;24.00;;;;;;;;4939146;28;8914;-71
2024/01/23 11:56:35;;;;;;;;;28.50;25.75;;;;;;;;4926116;28;9592;-71
2024/01/23 11:59:01;;;;;;;;;26.25;26.00;;;;;;;;4942052;28;11639;-71
2024/01/23 12:01:29;;;;;;;;;31.50;26.75;;;;;;;;4940138;28;11606;-72
2024/01/23 12:03:55;;;;;;;;;31.00;25.25;;;;;;;;4942050;28;8793;-71
2024/01/23 12:06:21;;;;;;;;;27.00;24.00;;;;;;;;4941689;28;11722;-73
2024/01/23 12:08:46;;;;;;;;;43.25;39.25;;;;;;;;4940717;28;8946;-73
2024/01/23 12:11:15;;;;;;;;;48.00;42.00;;;;;;;;4942423;28;11714;-73
2024/01/23 12:13:44;;;;;;;;;32.50;31.25;;;;;;;;4980703;28;8827;-72
2024/01/23 12:16:09;;;;;;;;;32.75;27.75;;;;;;;;4980829;28;11590;-73
2024/01/23 12:18:35;;;;;;;;;38.25;32.00;;;;;;;;4980178;28;12377;-74
2024/01/23 12:21:00;;;;;;;;;27.75;27.25;;;;;;;;4982575;28;8915;-73
2024/01/23 12:23:26;;;;;;;;;26.75;25.25;;;;;;;;4981363;28;8820;-73
2024/01/23 12:25:52;;;;;;;;;27.50;27.50;;;;;;;;4978821;28;9546;-73
2024/01/23 12:28:18;;;;;;;;;34.00;28.25;;;;;;;;4982170;28;11678;-73
2024/01/23 12:30:44;;;;;;;;;30.25;28.25;;;;;;;;4973343;28;8843;-75
2024/01/23 12:33:14;;;;;;;;;31.75;30.25;;;;;;;;4964149;28;8835;-75
2024/01/23 12:35:40;;;;;;;;;35.00;30.75;;;;;;;;4971612;28;11662;-75
2024/01/23 12:38:06;;;;;;;;;38.25;28.75;;;;;;;;4970831;28;11623;-75
2024/01/23 12:40:31;;;;;;;;;35.50;30.25;;;;;;;;4972609;28;8853;-72
2024/01/23 12:42:56;;;;;;;;;33.25;32.50;;;;;;;;4972475;28;8861;-76
2024/01/23 12:45:23;;;;;;;;;34.25;30.50;;;;;;;;4972545;28;8816;-73
2024/01/23 16:50:49;;;;;;;;;18.00;16.00;;;;;;;;5103667;27;13421;-77
2024/01/23 16:53:15;;;;;;;;;20.75;14.25;;;;;;;;5087094;28;11508;-75
2024/01/23 16:58:06;;;;;;;;;21.00;18.50;;;;;;;;5124043;27;13395;-75
2024/01/23 17:00:32;;;;;;;;;14.25;12.75;;;;;;;;5128546;27;11474;-79
2024/01/23 17:02:57;;;;;;;;;13.75;12.75;;;;;;;;5127448;27;8845;-77
2024/01/23 17:07:02;;;;;;;;;24.25;19.00;;;;;;;;5069994;28;13465;-77
2024/01/23 17:09:28;;;;;;;;;15.00;13.50;;;;;;;;5086517;28;11550;-74
2024/01/23 17:11:54;;;;;;;;;19.75;19.00;;;;;;;;5087355;28;8819;-74
2024/01/23 17:14:19;;;;;;;;;25.50;24.25;;;;;;;;5086021;28;11582;-80
2024/01/23 17:16:45;;;;;;;;;23.00;21.50;;;;;;;;5079667;28;8836;-74
2024/01/23 17:19:10;;;;;;;;;18.75;18.50;;;;;;;;5066366;28;8885;-76
